SAS2761 EKCH-EPWA
Flight info
| Callsign | SAS2761 |
|---|---|
| Flight time | 1h 0m |
| Altitude | 35000 |
| Route | SIMEG Z491 TELMO DCT KOLOB N195 ELPOL Y100 MALOX L621 GRUDA N191 SORIX |
| Aircraft | A20N/M-SDE3FGIJ1RWXY/ALB1 |
Departure
| Time | 2026-04-26 11:37 |
|---|---|
| Airport | Copenhagen Kastrup Airport (EKCH) |
Arrival
| Time | 2026-04-26 12:37 |
|---|---|
| Airport | Warsaw Chopin Airport (EPWA) |
| Time | Latitude | Longitude | Altitude | Speed | Heading |
|---|---|---|---|---|---|
| 2026-04-26 11:07 | 55.62755 | 12.64470 | 19 ft | 0 kts | 100° |
| 2026-04-26 11:21 | 55.62758 | 12.64445 | 19 ft | 2 kts | 98° |
| 2026-04-26 11:21 | 55.62757 | 12.64419 | 19 ft | 2 kts | 75° |
| 2026-04-26 11:22 | 55.62751 | 12.64394 | 19 ft | 2 kts | 56° |
| 2026-04-26 11:22 | 55.62741 | 12.64374 | 19 ft | 2 kts | 38° |
| 2026-04-26 11:22 | 55.62728 | 12.64361 | 19 ft | 2 kts | 24° |
| 2026-04-26 11:22 | 55.62715 | 12.64349 | 19 ft | 2 kts | 26° |
| 2026-04-26 11:23 | 55.62701 | 12.64338 | 19 ft | 2 kts | 24° |
| 2026-04-26 11:23 | 55.62687 | 12.64328 | 19 ft | 2 kts | 22° |
| 2026-04-26 11:23 | 55.62673 | 12.64318 | 19 ft | 2 kts | 21° |
| 2026-04-26 11:23 | 55.62659 | 12.64309 | 19 ft | 2 kts | 19° |
| 2026-04-26 11:24 | 55.62645 | 12.64300 | 19 ft | 2 kts | 24° |
| 2026-04-26 11:24 | 55.62632 | 12.64288 | 19 ft | 2 kts | 31° |
| 2026-04-26 11:24 | 55.62619 | 12.64274 | 19 ft | 2 kts | 34° |
| 2026-04-26 11:24 | 55.62606 | 12.64259 | 19 ft | 2 kts | 33° |
| 2026-04-26 11:25 | 55.62594 | 12.64245 | 20 ft | 2 kts | 33° |
| 2026-04-26 11:25 | 55.62582 | 12.64231 | 20 ft | 2 kts | 33° |
| 2026-04-26 11:25 | 55.62569 | 12.64216 | 20 ft | 2 kts | 33° |
| 2026-04-26 11:25 | 55.62557 | 12.64200 | 20 ft | 2 kts | 54° |
| 2026-04-26 11:26 | 55.62550 | 12.64177 | 20 ft | 2 kts | 75° |
| 2026-04-26 11:26 | 55.62548 | 12.64150 | 20 ft | 2 kts | 97° |
| 2026-04-26 11:26 | 55.62552 | 12.64125 | 20 ft | 2 kts | 119° |
| 2026-04-26 11:26 | 55.62561 | 12.64103 | 20 ft | 2 kts | 124° |
| 2026-04-26 11:27 | 55.62569 | 12.64081 | 20 ft | 2 kts | 123° |
| 2026-04-26 11:27 | 55.62576 | 12.64062 | 20 ft | 0 kts | 123° |
| 2026-04-26 11:30 | 55.62574 | 12.64067 | 20 ft | 1 kts | 123° |
| 2026-04-26 11:30 | 55.62568 | 12.64083 | 20 ft | 3 kts | 123° |
| 2026-04-26 11:30 | 55.62543 | 12.64152 | 20 ft | 6 kts | 123° |
| 2026-04-26 11:30 | 55.62514 | 12.64230 | 20 ft | 8 kts | 123° |
| 2026-04-26 11:31 | 55.62476 | 12.64327 | 20 ft | 10 kts | 127° |
| 2026-04-26 11:31 | 55.62427 | 12.64430 | 20 ft | 11 kts | 126° |
| 2026-04-26 11:31 | 55.62377 | 12.64560 | 21 ft | 13 kts | 121° |
| 2026-04-26 11:31 | 55.62325 | 12.64706 | 21 ft | 14 kts | 124° |
| 2026-04-26 11:32 | 55.62266 | 12.64865 | 21 ft | 16 kts | 123° |
| 2026-04-26 11:32 | 55.62201 | 12.65041 | 19 ft | 17 kts | 123° |
| 2026-04-26 11:32 | 55.62124 | 12.65082 | 19 ft | 13 kts | 213° |
| 2026-04-26 11:32 | 55.62045 | 12.64988 | 21 ft | 15 kts | 214° |
| 2026-04-26 11:33 | 55.61947 | 12.64875 | 21 ft | 18 kts | 213° |
| 2026-04-26 11:33 | 55.61837 | 12.64750 | 22 ft | 18 kts | 214° |
| 2026-04-26 11:33 | 55.61726 | 12.64623 | 22 ft | 19 kts | 213° |
| 2026-04-26 11:33 | 55.61614 | 12.64492 | 22 ft | 19 kts | 212° |
| 2026-04-26 11:34 | 55.61494 | 12.64356 | 21 ft | 21 kts | 213° |
| 2026-04-26 11:34 | 55.61368 | 12.64212 | 21 ft | 22 kts | 213° |
| 2026-04-26 11:34 | 55.61237 | 12.64062 | 21 ft | 22 kts | 213° |
| 2026-04-26 11:34 | 55.61104 | 12.63908 | 22 ft | 22 kts | 213° |
| 2026-04-26 11:35 | 55.60973 | 12.63759 | 22 ft | 22 kts | 213° |
| 2026-04-26 11:35 | 55.60847 | 12.63614 | 22 ft | 18 kts | 210° |
| 2026-04-26 11:35 | 55.60751 | 12.63677 | 22 ft | 16 kts | 130° |
| 2026-04-26 11:35 | 55.60691 | 12.63826 | 23 ft | 14 kts | 105° |
| 2026-04-26 11:36 | 55.60700 | 12.63903 | 22 ft | 0 kts | 43° |
| 2026-04-26 11:36 | 55.60854 | 12.64140 | 22 ft | 67 kts | 41° |
| 2026-04-26 11:36 | 55.61375 | 12.64945 | 22 ft | 131 kts | 41° |
| 2026-04-26 11:36 | 55.62151 | 12.66158 | 334 ft | 156 kts | 40° |
| 2026-04-26 11:37 | 55.62944 | 12.67427 | 1013 ft | 157 kts | 39° |
| 2026-04-26 11:37 | 55.63727 | 12.68708 | 1759 ft | 154 kts | 38° |
| 2026-04-26 11:37 | 55.64542 | 12.69994 | 2206 ft | 166 kts | 36° |
| 2026-04-26 11:37 | 55.65465 | 12.71370 | 2628 ft | 182 kts | 36° |
| 2026-04-26 11:38 | 55.66484 | 12.72863 | 3067 ft | 199 kts | 36° |
| 2026-04-26 11:38 | 55.67586 | 12.74476 | 3517 ft | 216 kts | 36° |
| 2026-04-26 11:38 | 55.68798 | 12.76264 | 3912 ft | 239 kts | 37° |
| 2026-04-26 11:38 | 55.69912 | 12.78595 | 4429 ft | 263 kts | 64° |
| 2026-04-26 11:39 | 55.70114 | 12.81854 | 5260 ft | 277 kts | 99° |
| 2026-04-26 11:39 | 55.69236 | 12.84839 | 6208 ft | 283 kts | 132° |
| 2026-04-26 11:39 | 55.67724 | 12.87053 | 7119 ft | 287 kts | 143° |
| 2026-04-26 11:39 | 55.66853 | 12.88133 | 7538 ft | 290 kts | 144° |
| 2026-04-26 11:40 | 55.65184 | 12.90219 | 8324 ft | 297 kts | 143° |
| 2026-04-26 11:40 | 55.63526 | 12.92427 | 9079 ft | 304 kts | 141° |
| 2026-04-26 11:40 | 55.61850 | 12.94791 | 9872 ft | 310 kts | 139° |
| 2026-04-26 11:40 | 55.60183 | 12.97230 | 10594 ft | 317 kts | 139° |
| 2026-04-26 11:41 | 55.58457 | 12.99807 | 11100 ft | 333 kts | 138° |
| 2026-04-26 11:42 | 55.44736 | 13.20566 | 15286 ft | 396 kts | 137° |
| 2026-04-26 11:43 | 55.42736 | 13.23878 | 15921 ft | 399 kts | 126° |
| 2026-04-26 11:43 | 55.41220 | 13.27956 | 16587 ft | 399 kts | 114° |
| 2026-04-26 11:43 | 55.39939 | 13.32258 | 17182 ft | 403 kts | 112° |
| 2026-04-26 11:43 | 55.38645 | 13.36678 | 17810 ft | 409 kts | 112° |
| 2026-04-26 11:44 | 55.37293 | 13.41137 | 18426 ft | 414 kts | 113° |
| 2026-04-26 11:44 | 55.35899 | 13.45570 | 19003 ft | 420 kts | 114° |
| 2026-04-26 11:44 | 55.34436 | 13.50106 | 19636 ft | 424 kts | 115° |
| 2026-04-26 11:44 | 55.32948 | 13.54643 | 20262 ft | 428 kts | 115° |
| 2026-04-26 11:45 | 55.31470 | 13.59119 | 20825 ft | 432 kts | 115° |
| 2026-04-26 11:45 | 55.29943 | 13.63723 | 21408 ft | 436 kts | 115° |
| 2026-04-26 11:45 | 55.28411 | 13.68318 | 21960 ft | 440 kts | 116° |
| 2026-04-26 11:45 | 55.26866 | 13.72944 | 22492 ft | 444 kts | 116° |
| 2026-04-26 11:46 | 55.25291 | 13.77645 | 23030 ft | 448 kts | 116° |
| 2026-04-26 11:46 | 55.23706 | 13.82372 | 23512 ft | 453 kts | 116° |
| 2026-04-26 11:46 | 55.22113 | 13.87112 | 24007 ft | 456 kts | 116° |
| 2026-04-26 11:46 | 55.20508 | 13.91889 | 24469 ft | 461 kts | 116° |
| 2026-04-26 11:47 | 55.18885 | 13.96701 | 24924 ft | 465 kts | 117° |
| 2026-04-26 11:47 | 55.17241 | 14.01561 | 25411 ft | 468 kts | 117° |
| 2026-04-26 11:47 | 55.15579 | 14.06473 | 25879 ft | 471 kts | 117° |
| 2026-04-26 11:47 | 55.13905 | 14.11400 | 26436 ft | 472 kts | 117° |
| 2026-04-26 11:48 | 55.12244 | 14.16281 | 26998 ft | 472 kts | 117° |
| 2026-04-26 11:48 | 55.10549 | 14.21256 | 27448 ft | 475 kts | 117° |
| 2026-04-26 11:48 | 55.08852 | 14.26225 | 27853 ft | 478 kts | 117° |
| 2026-04-26 11:48 | 55.07159 | 14.31172 | 28246 ft | 481 kts | 117° |
| 2026-04-26 11:49 | 55.05443 | 14.36186 | 28647 ft | 484 kts | 117° |
| 2026-04-26 11:49 | 55.03712 | 14.41220 | 29065 ft | 487 kts | 117° |
| 2026-04-26 11:49 | 55.01980 | 14.46250 | 29439 ft | 490 kts | 117° |
| 2026-04-26 11:49 | 55.00224 | 14.51334 | 29786 ft | 493 kts | 117° |
| 2026-04-26 11:50 | 54.98463 | 14.56434 | 30108 ft | 497 kts | 117° |
| 2026-04-26 11:50 | 54.96663 | 14.61626 | 30477 ft | 499 kts | 117° |
| 2026-04-26 11:50 | 54.94855 | 14.66842 | 30870 ft | 500 kts | 118° |
| 2026-04-26 11:50 | 54.93051 | 14.72032 | 31296 ft | 500 kts | 119° |
| 2026-04-26 11:51 | 54.91237 | 14.77233 | 31760 ft | 498 kts | 119° |
| 2026-04-26 11:51 | 54.89454 | 14.82335 | 32188 ft | 497 kts | 119° |
| 2026-04-26 11:51 | 54.87654 | 14.87472 | 32550 ft | 497 kts | 118° |
| 2026-04-26 11:51 | 54.85840 | 14.92641 | 32899 ft | 497 kts | 119° |
| 2026-04-26 11:52 | 54.84053 | 14.97731 | 33218 ft | 498 kts | 119° |
| 2026-04-26 11:52 | 54.82226 | 15.02910 | 33538 ft | 498 kts | 119° |
| 2026-04-26 11:52 | 54.80428 | 15.08009 | 33843 ft | 498 kts | 119° |
| 2026-04-26 11:52 | 54.78630 | 15.13093 | 34106 ft | 499 kts | 119° |
| 2026-04-26 11:53 | 54.76812 | 15.18215 | 34346 ft | 501 kts | 119° |
| 2026-04-26 11:53 | 54.74964 | 15.23423 | 34576 ft | 503 kts | 120° |
| 2026-04-26 11:53 | 54.73150 | 15.28520 | 34792 ft | 504 kts | 119° |
| 2026-04-26 11:54 | 54.69439 | 15.38902 | 35229 ft | 505 kts | 119° |
| 2026-04-26 11:54 | 54.65731 | 15.49251 | 35259 ft | 507 kts | 119° |
| 2026-04-26 11:55 | 54.62006 | 15.59588 | 35260 ft | 507 kts | 119° |
| 2026-04-26 11:55 | 54.58144 | 15.69754 | 35259 ft | 509 kts | 122° |
| 2026-04-26 11:56 | 54.54018 | 15.79681 | 35258 ft | 511 kts | 125° |
| 2026-04-26 11:56 | 54.49826 | 15.89470 | 35258 ft | 512 kts | 125° |
| 2026-04-26 11:57 | 54.45589 | 15.99381 | 35256 ft | 513 kts | 125° |
| 2026-04-26 11:57 | 54.41359 | 16.09277 | 35253 ft | 513 kts | 124° |
| 2026-04-26 11:58 | 54.37141 | 16.19126 | 35253 ft | 513 kts | 124° |
| 2026-04-26 11:58 | 54.32934 | 16.28912 | 35253 ft | 513 kts | 124° |
| 2026-04-26 11:59 | 54.28685 | 16.38743 | 35250 ft | 513 kts | 124° |
| 2026-04-26 11:59 | 54.24469 | 16.48475 | 35246 ft | 514 kts | 124° |
| 2026-04-26 12:00 | 54.20224 | 16.58237 | 35244 ft | 515 kts | 124° |
| 2026-04-26 12:00 | 54.15936 | 16.68049 | 35240 ft | 515 kts | 125° |
| 2026-04-26 12:01 | 54.11647 | 16.77820 | 35239 ft | 516 kts | 125° |
| 2026-04-26 12:01 | 54.07353 | 16.87581 | 35237 ft | 516 kts | 125° |
| 2026-04-26 12:02 | 54.03032 | 16.97361 | 35232 ft | 517 kts | 125° |
| 2026-04-26 12:02 | 53.98665 | 17.07202 | 35227 ft | 519 kts | 125° |
| 2026-04-26 12:03 | 53.94313 | 17.16964 | 35226 ft | 520 kts | 125° |
| 2026-04-26 12:03 | 53.89967 | 17.26680 | 35223 ft | 520 kts | 124° |
| 2026-04-26 12:04 | 53.85564 | 17.36488 | 35222 ft | 520 kts | 124° |
| 2026-04-26 12:04 | 53.81200 | 17.46179 | 35222 ft | 521 kts | 125° |
| 2026-04-26 12:05 | 53.76790 | 17.55926 | 35222 ft | 521 kts | 125° |
| 2026-04-26 12:05 | 53.72387 | 17.65614 | 35217 ft | 521 kts | 126° |
| 2026-04-26 12:06 | 53.67975 | 17.75289 | 35215 ft | 521 kts | 125° |
| 2026-04-26 12:06 | 53.63585 | 17.84878 | 35205 ft | 520 kts | 125° |
| 2026-04-26 12:07 | 53.59170 | 17.94485 | 35195 ft | 520 kts | 125° |
| 2026-04-26 12:07 | 53.54724 | 18.04123 | 35198 ft | 520 kts | 125° |
| 2026-04-26 12:08 | 53.50295 | 18.13687 | 35201 ft | 520 kts | 125° |
| 2026-04-26 12:08 | 53.45878 | 18.23192 | 35199 ft | 520 kts | 125° |
| 2026-04-26 12:09 | 53.41434 | 18.32703 | 35192 ft | 519 kts | 124° |
| 2026-04-26 12:09 | 53.36981 | 18.42221 | 35196 ft | 519 kts | 124° |
| 2026-04-26 12:10 | 53.32541 | 18.51650 | 35185 ft | 518 kts | 124° |
| 2026-04-26 12:10 | 53.28073 | 18.61131 | 34451 ft | 525 kts | 124° |
| 2026-04-26 12:10 | 53.25816 | 18.65908 | 33690 ft | 529 kts | 126° |
| 2026-04-26 12:11 | 53.23535 | 18.70726 | 32971 ft | 531 kts | 125° |
| 2026-04-26 12:11 | 53.21241 | 18.75547 | 32274 ft | 532 kts | 124° |
| 2026-04-26 12:11 | 53.18954 | 18.80341 | 31596 ft | 533 kts | 124° |
| 2026-04-26 12:11 | 53.16625 | 18.85222 | 30905 ft | 534 kts | 124° |
| 2026-04-26 12:12 | 53.14345 | 18.90038 | 30211 ft | 534 kts | 122° |
| 2026-04-26 12:12 | 53.12230 | 18.95068 | 29542 ft | 532 kts | 118° |
| 2026-04-26 12:12 | 53.10208 | 19.00261 | 28914 ft | 529 kts | 117° |
| 2026-04-26 12:12 | 53.08904 | 19.03676 | 28508 ft | 528 kts | 116° |
| 2026-04-26 12:13 | 53.06273 | 19.10511 | 27723 ft | 524 kts | 116° |
| 2026-04-26 12:13 | 53.04305 | 19.15551 | 27209 ft | 520 kts | 117° |
| 2026-04-26 12:13 | 53.02355 | 19.20486 | 26816 ft | 512 kts | 117° |
| 2026-04-26 12:13 | 53.00413 | 19.25378 | 26425 ft | 505 kts | 117° |
| 2026-04-26 12:14 | 52.98482 | 19.30214 | 26007 ft | 500 kts | 117° |
| 2026-04-26 12:14 | 52.96576 | 19.34987 | 25576 ft | 496 kts | 117° |
| 2026-04-26 12:14 | 52.94672 | 19.39741 | 25133 ft | 492 kts | 116° |
| 2026-04-26 12:14 | 52.92793 | 19.44410 | 24692 ft | 488 kts | 116° |
| 2026-04-26 12:15 | 52.90928 | 19.49051 | 24282 ft | 484 kts | 116° |
| 2026-04-26 12:15 | 52.89069 | 19.53668 | 23849 ft | 481 kts | 116° |
| 2026-04-26 12:15 | 52.87190 | 19.58330 | 23415 ft | 476 kts | 116° |
| 2026-04-26 12:15 | 52.85368 | 19.62839 | 22997 ft | 473 kts | 116° |
| 2026-04-26 12:16 | 52.83550 | 19.67333 | 22571 ft | 469 kts | 117° |
| 2026-04-26 12:16 | 52.81753 | 19.71751 | 22179 ft | 464 kts | 117° |
| 2026-04-26 12:16 | 52.79959 | 19.76165 | 21757 ft | 460 kts | 117° |
| 2026-04-26 12:16 | 52.78197 | 19.80494 | 21356 ft | 457 kts | 116° |
| 2026-04-26 12:17 | 52.76421 | 19.84842 | 20950 ft | 453 kts | 116° |
| 2026-04-26 12:17 | 52.74687 | 19.89080 | 20555 ft | 449 kts | 116° |
| 2026-04-26 12:17 | 52.72945 | 19.93344 | 20159 ft | 445 kts | 116° |
| 2026-04-26 12:17 | 52.71224 | 19.97557 | 19784 ft | 441 kts | 117° |
| 2026-04-26 12:18 | 52.69510 | 20.01732 | 19392 ft | 438 kts | 116° |
| 2026-04-26 12:18 | 52.67819 | 20.05845 | 18984 ft | 435 kts | 116° |
| 2026-04-26 12:18 | 52.66128 | 20.09941 | 18600 ft | 432 kts | 116° |
| 2026-04-26 12:18 | 52.64451 | 20.14004 | 18210 ft | 429 kts | 116° |
| 2026-04-26 12:19 | 52.62787 | 20.18040 | 17816 ft | 426 kts | 116° |
| 2026-04-26 12:19 | 52.61134 | 20.22041 | 17431 ft | 423 kts | 116° |
| 2026-04-26 12:19 | 52.59486 | 20.26010 | 17049 ft | 419 kts | 116° |
| 2026-04-26 12:19 | 52.57853 | 20.29948 | 16669 ft | 416 kts | 117° |
| 2026-04-26 12:20 | 52.56236 | 20.33839 | 16271 ft | 413 kts | 117° |
| 2026-04-26 12:20 | 52.54616 | 20.37727 | 15861 ft | 410 kts | 117° |
| 2026-04-26 12:20 | 52.53007 | 20.41577 | 15460 ft | 407 kts | 117° |
| 2026-04-26 12:20 | 52.51409 | 20.45405 | 15038 ft | 404 kts | 117° |
| 2026-04-26 12:21 | 52.49825 | 20.49190 | 14598 ft | 402 kts | 117° |
| 2026-04-26 12:21 | 52.48260 | 20.52931 | 14150 ft | 399 kts | 117° |
| 2026-04-26 12:21 | 52.46698 | 20.56661 | 13727 ft | 396 kts | 117° |
| 2026-04-26 12:21 | 52.45152 | 20.60346 | 13299 ft | 393 kts | 118° |
| 2026-04-26 12:22 | 52.43602 | 20.64036 | 12857 ft | 390 kts | 118° |
| 2026-04-26 12:22 | 52.42034 | 20.67761 | 12388 ft | 388 kts | 120° |
| 2026-04-26 12:22 | 52.40508 | 20.71376 | 11939 ft | 385 kts | 120° |
| 2026-04-26 12:22 | 52.38993 | 20.74957 | 11485 ft | 381 kts | 120° |
| 2026-04-26 12:23 | 52.37505 | 20.78468 | 11048 ft | 378 kts | 121° |
| 2026-04-26 12:23 | 52.36017 | 20.81981 | 10605 ft | 366 kts | 121° |
| 2026-04-26 12:23 | 52.34620 | 20.85265 | 10307 ft | 347 kts | 122° |
| 2026-04-26 12:23 | 52.33292 | 20.88374 | 10197 ft | 322 kts | 121° |
| 2026-04-26 12:24 | 52.32030 | 20.91336 | 10090 ft | 309 kts | 121° |
| 2026-04-26 12:24 | 52.30820 | 20.94179 | 9768 ft | 308 kts | 121° |
| 2026-04-26 12:24 | 52.29582 | 20.97089 | 9403 ft | 308 kts | 121° |
| 2026-04-26 12:25 | 52.27029 | 21.02646 | 8719 ft | 308 kts | 135° |
| 2026-04-26 12:25 | 52.25303 | 21.04685 | 8394 ft | 306 kts | 151° |
| 2026-04-26 12:25 | 52.23434 | 21.06298 | 8077 ft | 304 kts | 154° |
| 2026-04-26 12:25 | 52.21557 | 21.07818 | 7763 ft | 303 kts | 154° |
| 2026-04-26 12:26 | 52.19675 | 21.09367 | 7533 ft | 297 kts | 154° |
| 2026-04-26 12:26 | 52.17897 | 21.10863 | 7465 ft | 285 kts | 153° |
| 2026-04-26 12:26 | 52.16183 | 21.12330 | 7386 ft | 274 kts | 153° |
| 2026-04-26 12:26 | 52.14519 | 21.13765 | 7229 ft | 269 kts | 153° |
| 2026-04-26 12:27 | 52.12868 | 21.15211 | 6958 ft | 269 kts | 153° |
| 2026-04-26 12:27 | 52.11229 | 21.16647 | 6685 ft | 269 kts | 152° |
| 2026-04-26 12:27 | 52.09590 | 21.18084 | 6410 ft | 268 kts | 152° |
| 2026-04-26 12:27 | 52.07954 | 21.19519 | 6136 ft | 268 kts | 152° |
| 2026-04-26 12:28 | 52.06311 | 21.20953 | 5863 ft | 267 kts | 152° |
| 2026-04-26 12:28 | 52.04670 | 21.22383 | 5592 ft | 266 kts | 152° |
| 2026-04-26 12:28 | 52.03044 | 21.23804 | 5320 ft | 264 kts | 152° |
| 2026-04-26 12:28 | 52.01445 | 21.25196 | 5057 ft | 264 kts | 153° |
| 2026-04-26 12:29 | 51.99826 | 21.26603 | 4933 ft | 264 kts | 153° |
| 2026-04-26 12:29 | 51.98152 | 21.27796 | 4757 ft | 264 kts | 173° |
| 2026-04-26 12:29 | 51.95266 | 21.25743 | 4379 ft | 220 kts | 257° |
| 2026-04-26 12:30 | 51.95105 | 21.23454 | 4248 ft | 201 kts | 288° |
| 2026-04-26 12:30 | 51.95523 | 21.21336 | 4123 ft | 197 kts | 297° |
| 2026-04-26 12:30 | 51.96001 | 21.19254 | 3988 ft | 197 kts | 294° |
| 2026-04-26 12:31 | 51.96802 | 21.14969 | 3688 ft | 197 kts | 298° |
| 2026-04-26 12:31 | 51.97611 | 21.13279 | 3454 ft | 190 kts | 326° |
| 2026-04-26 12:31 | 51.98752 | 21.12200 | 3221 ft | 189 kts | 332° |
| 2026-04-26 12:31 | 51.99897 | 21.11259 | 3020 ft | 184 kts | 333° |
| 2026-04-26 12:32 | 52.01006 | 21.10336 | 2987 ft | 170 kts | 332° |
| 2026-04-26 12:32 | 52.02013 | 21.09476 | 2985 ft | 162 kts | 331° |
| 2026-04-26 12:32 | 52.03857 | 21.07864 | 2941 ft | 140 kts | 331° |
| 2026-04-26 12:33 | 52.04692 | 21.07129 | 2773 ft | 131 kts | 331° |
| 2026-04-26 12:33 | 52.05467 | 21.06447 | 2579 ft | 123 kts | 331° |
| 2026-04-26 12:33 | 52.06201 | 21.05800 | 2404 ft | 118 kts | 331° |
| 2026-04-26 12:33 | 52.06930 | 21.05159 | 2258 ft | 118 kts | 330° |
| 2026-04-26 12:34 | 52.07656 | 21.04521 | 2151 ft | 118 kts | 331° |
| 2026-04-26 12:34 | 52.08380 | 21.03884 | 1977 ft | 117 kts | 330° |
| 2026-04-26 12:34 | 52.09093 | 21.03258 | 1818 ft | 117 kts | 332° |
| 2026-04-26 12:34 | 52.09808 | 21.02632 | 1648 ft | 116 kts | 330° |
| 2026-04-26 12:35 | 52.10528 | 21.02002 | 1482 ft | 116 kts | 331° |
| 2026-04-26 12:35 | 52.11229 | 21.01389 | 1316 ft | 116 kts | 330° |
| 2026-04-26 12:35 | 52.11940 | 21.00768 | 1166 ft | 115 kts | 330° |
| 2026-04-26 12:35 | 52.12645 | 21.00151 | 1011 ft | 115 kts | 330° |
| 2026-04-26 12:36 | 52.13344 | 20.99542 | 855 ft | 114 kts | 329° |
| 2026-04-26 12:36 | 52.14051 | 20.98916 | 699 ft | 114 kts | 329° |
| 2026-04-26 12:36 | 52.14748 | 20.98319 | 535 ft | 113 kts | 328° |
| 2026-04-26 12:36 | 52.15441 | 20.97712 | 402 ft | 114 kts | 328° |
| 2026-04-26 12:37 | 52.16115 | 20.97113 | 350 ft | 100 kts | 332° |
| 2026-04-26 12:37 | 52.16581 | 20.96703 | 350 ft | 50 kts | 332° |
| 2026-04-26 12:37 | 52.16800 | 20.96538 | 350 ft | 29 kts | 346° |
| 2026-04-26 12:37 | 52.16963 | 20.96515 | 350 ft | 14 kts | 0° |
| 2026-04-26 12:38 | 52.17050 | 20.96519 | 350 ft | 10 kts | 10° |
| 2026-04-26 12:38 | 52.17096 | 20.96597 | 350 ft | 9 kts | 62° |
| 2026-04-26 12:38 | 52.17130 | 20.96694 | 350 ft | 10 kts | 62° |
| 2026-04-26 12:38 | 52.17162 | 20.96802 | 350 ft | 10 kts | 79° |
| 2026-04-26 12:39 | 52.17126 | 20.96872 | 350 ft | 8 kts | 149° |
| 2026-04-26 12:39 | 52.17067 | 20.96924 | 350 ft | 10 kts | 153° |
| 2026-04-26 12:39 | 52.17022 | 20.96974 | 350 ft | 5 kts | 110° |
| 2026-04-26 12:39 | 52.17025 | 20.96995 | 350 ft | 2 kts | 57° |
| 2026-04-26 12:40 | 52.17040 | 20.97049 | 350 ft | 6 kts | 75° |
| 2026-04-26 12:40 | 52.17047 | 20.97100 | 350 ft | 0 kts | 76° |
| 2026-04-26 12:40 | 52.17049 | 20.97109 | 350 ft | 0 kts | 76° |